Map

Track Data

SID SEASON NUMBER BASIN SUBBASIN NAME ISO_TIME NATURE LAT LON WMO_WIND WMO_PRES WMO_AGENCY TRACK_TYPE DIST2LAND LANDFALL IFLAG USA_AGENCY USA_ATCF_ID USA_LAT USA_LON USA_RECORD USA_STATUS USA_WIND USA_PRES USA_SSHS USA_R34_NE USA_R34_SE USA_R34_SW USA_R34_NW USA_R50_NE USA_R50_SE USA_R50_SW USA_R50_NW USA_R64_NE USA_R64_SE USA_R64_SW USA_R64_NW USA_POCI USA_ROCI USA_RMW USA_EYE TOKYO_LAT TOKYO_LON TOKYO_GRADE TOKYO_WIND TOKYO_PRES TOKYO_R50_DIR TOKYO_R50_LONG TOKYO_R50_SHORT TOKYO_R30_DIR TOKYO_R30_LONG TOKYO_R30_SHORT TOKYO_LAND CMA_LAT CMA_LON CMA_CAT CMA_WIND CMA_PRES HKO_LAT HKO_LON HKO_CAT HKO_WIND HKO_PRES NEWDELHI_LAT NEWDELHI_LON NEWDELHI_GRADE NEWDELHI_WIND NEWDELHI_PRES NEWDELHI_CI NEWDELHI_DP NEWDELHI_POCI REUNION_LAT REUNION_LON REUNION_TYPE REUNION_WIND REUNION_PRES REUNION_TNUM REUNION_CI REUNION_RMW REUNION_R34_NE REUNION_R34_SE REUNION_R34_SW REUNION_R34_NW REUNION_R50_NE REUNION_R50_SE REUNION_R50_SW REUNION_R50_NW REUNION_R64_NE REUNION_R64_SE REUNION_R64_SW REUNION_R64_NW BOM_LAT BOM_LON BOM_TYPE BOM_WIND BOM_PRES BOM_TNUM BOM_CI BOM_RMW BOM_R34_NE BOM_R34_SE BOM_R34_SW BOM_R34_NW BOM_R50_NE BOM_R50_SE BOM_R50_SW BOM_R50_NW BOM_R64_NE BOM_R64_SE BOM_R64_SW BOM_R64_NW BOM_ROCI BOM_POCI BOM_EYE BOM_POS_METHOD BOM_PRES_METHOD NADI_LAT NADI_LON NADI_CAT NADI_WIND NADI_PRES WELLINGTON_LAT WELLINGTON_LON WELLINGTON_WIND WELLINGTON_PRES DS824_LAT DS824_LON DS824_STAGE DS824_WIND DS824_PRES TD9636_LAT TD9636_LON TD9636_STAGE TD9636_WIND TD9636_PRES TD9635_LAT TD9635_LON TD9635_WIND TD9635_PRES TD9635_ROCI NEUMANN_LAT NEUMANN_LON NEUMANN_CLASS NEUMANN_WIND NEUMANN_PRES MLC_LAT MLC_LON MLC_CLASS MLC_WIND MLC_PRES USA_GUST BOM_GUST BOM_GUST_PER REUNION_GUST REUNION_GUST_PER USA_SEAHGT USA_SEARAD_NE USA_SEARAD_SE USA_SEARAD_SW USA_SEARAD_NW STORM_SPEED STORM_DIR
1907070S21115 1907 17 SI WA NOT_NAMED 1907-03-11 06:00:00 NR -21.5000 115.200 main 11 11 _____O________ -1 -21.5000 115.200 99 9.90000 4 264
1907070S21115 1907 17 SI WA NOT_NAMED 1907-03-11 09:00:00 NR -21.5224 114.968 main 22 15 _____P________ -1 -21.5224 114.968 99 4 263
1907070S21115 1907 17 SI WA NOT_NAMED 1907-03-11 12:00:00 NR -21.5531 114.741 main 22 22 _____P________ -1 -21.5531 114.741 99 4 259
1907070S21115 1907 17 SI WA NOT_NAMED 1907-03-11 15:00:00 NR -21.6009 114.521 main 24 23 _____P________ -1 -21.6009 114.521 99 4 253
1907070S21115 1907 17 SI WA NOT_NAMED 1907-03-11 18:00:00 NR -21.6743 114.315 main 30 11 _____P________ -1 -21.6743 114.315 99 4 244
1907070S21115 1907 17 SI WA NOT_NAMED 1907-03-11 21:00:00 NR -21.7822 114.126 main 11 0 _____P________ -1 -21.7822 114.126 99 4 232
1907070S21115 1907 17 SI WA NOT_NAMED 1907-03-12 00:00:00 NR -21.9333 113.957 main 0 0 _____P________ -1 -21.9333 113.957 99 5 219
1907070S21115 1907 17 SI WA NOT_NAMED 1907-03-12 03:00:00 NR -22.1363 113.814 main 10 0 _____P________ -1 -22.1363 113.814 99 5 207
1907070S21115 1907 17 SI WA NOT_NAMED 1907-03-12 06:00:00 NR -22.4000 113.700 main 10 0 _____O________ -1 -22.4000 113.700 99 9.90000 6 197
1907070S21115 1907 17 SI WA NOT_NAMED 1907-03-12 09:00:00 NR -22.7286 113.618 main 10 10 _____P________ -1 -22.7286 113.618 99 7 190
1907070S21115 1907 17 SI WA NOT_NAMED 1907-03-12 12:00:00 NR -23.1081 113.567 main 20 20 _____P________ -1 -23.1081 113.567 99 8 185
1907070S21115 1907 17 SI WA NOT_NAMED 1907-03-12 15:00:00 NR -23.5196 113.542 main 30 0 _____P________ -1 -23.5196 113.542 99 8 181
1907070S21115 1907 17 SI WA NOT_NAMED 1907-03-12 18:00:00 NR -23.9443 113.541 main 0 0 _____P________ -1 -23.9443 113.541 99 8 0
1907070S21115 1907 17 SI WA NOT_NAMED 1907-03-12 21:00:00 NR -24.3636 113.560 main 0 0 _____P________ -1 -24.3636 113.560 99 8 176
1907070S21115 1907 17 SI WA NOT_NAMED 1907-03-13 00:00:00 NR -24.7585 113.595 main 10 0 _____P________ -1 -24.7585 113.595 99 8 174
1907070S21115 1907 17 SI WA NOT_NAMED 1907-03-13 03:00:00 NR -25.1102 113.643 main 10 10 _____P________ -1 -25.1102 113.643 99 7 171
1907070S21115 1907 17 SI WA NOT_NAMED 1907-03-13 06:00:00 NR -25.4000 113.700 main 22 15 _____O________ -1 -25.4000 113.700 99 9.90000 5 168
1907070S21115 1907 17 SI WA NOT_NAMED 1907-03-13 09:00:00 NR -25.6139 113.763 main 22 10 _____P________ -1 -25.6139 113.763 99 4 161
1907070S21115 1907 17 SI WA NOT_NAMED 1907-03-13 12:00:00 NR -25.7573 113.831 main 10 10 _____P________ -1 -25.7573 113.831 99 3 151
1907070S21115 1907 17 SI WA NOT_NAMED 1907-03-13 15:00:00 NR -25.8402 113.904 main 14 9 _____P________ -1 -25.8402 113.904 99 2 131
1907070S21115 1907 17 SI WA NOT_NAMED 1907-03-13 18:00:00 NR -25.8727 113.979 main 14 14 _____P________ -1 -25.8727 113.979 99 1 100
1907070S21115 1907 17 SI WA NOT_NAMED 1907-03-13 21:00:00 NR -25.8648 114.057 main 14 10 _____P________ -1 -25.8648 114.057 99 1 72
1907070S21115 1907 17 SI WA NOT_NAMED 1907-03-14 00:00:00 NR -25.8267 114.137 main 10 0 _____P________ -1 -25.8267 114.137 99 2 56
1907070S21115 1907 17 SI WA NOT_NAMED 1907-03-14 03:00:00 NR -25.7684 114.218 main 0 0 _____P________ -1 -25.7684 114.218 99 2 49
1907070S21115 1907 17 SI WA NOT_NAMED 1907-03-14 06:00:00 NR -25.7000 114.300 main 0 _____O________ -1 -25.7000 114.300 99 9.90000 2 45

About IBTrACS Database

This database is a web-friendly format of International Best Track Archive for Climate Stewardship (IBTrACS), a global best track data archive curated by NOAA dating back to 1842.

Updated: 2021-12-01